createdAt,value
2018-06-15T00:00:31.812Z,17.27
2018-06-15T00:03:01.237Z,17.47
2018-06-15T00:05:30.743Z,17.37
2018-06-15T00:07:59.887Z,16.60
2018-06-15T00:10:29.721Z,18.53
2018-06-15T00:12:59.048Z,16.87
2018-06-15T00:15:28.416Z,19.00
2018-06-15T00:17:57.748Z,18.40
2018-06-15T00:20:27.163Z,18.47
2018-06-15T00:22:56.519Z,18.57
2018-06-15T00:25:25.900Z,19.00
2018-06-15T00:27:54.963Z,19.00
2018-06-15T00:30:24.367Z,16.87
2018-06-15T00:32:53.756Z,18.10
2018-06-15T00:35:23.153Z,18.10
2018-06-15T00:37:52.544Z,16.67
2018-06-15T00:40:21.898Z,18.00
2018-06-15T00:42:51.302Z,17.40
2018-06-15T00:45:20.415Z,16.43
2018-06-15T00:47:49.755Z,17.80
2018-06-15T00:50:19.148Z,17.40
2018-06-15T00:52:48.535Z,17.90
2018-06-15T00:55:18.224Z,17.40
2018-06-15T00:57:48.848Z,16.80
2018-06-15T01:00:18.558Z,16.63
2018-06-15T01:02:47.931Z,17.13
2018-06-15T01:05:17.287Z,17.07
2018-06-15T01:07:46.885Z,17.17
2018-06-15T01:10:22.545Z,14.63
2018-06-15T01:12:51.759Z,16.60
2018-06-15T01:15:21.110Z,16.00
2018-06-15T01:17:50.464Z,18.40
2018-06-15T01:20:19.865Z,15.83
2018-06-15T01:22:49.237Z,16.47
2018-06-15T01:25:18.341Z,16.77
2018-06-15T01:27:47.436Z,17.80
2018-06-15T01:30:16.924Z,17.63
2018-06-15T01:32:46.300Z,15.23
2018-06-15T01:35:15.687Z,16.47
2018-06-15T01:37:45.083Z,17.00
2018-06-15T01:40:14.484Z,18.30
2018-06-15T01:42:43.841Z,19.90
2018-06-15T01:45:13.256Z,16.97
2018-06-15T01:47:42.623Z,17.10
2018-06-15T01:50:12.039Z,18.20
2018-06-15T01:52:41.510Z,19.33
2018-06-15T01:55:10.856Z,19.30
2018-06-15T01:57:40.605Z,19.90
2018-06-15T02:00:10.353Z,19.80
2018-06-15T02:02:39.684Z,19.87
2018-06-15T02:05:09.477Z,19.63
2018-06-15T02:07:38.894Z,18.30
2018-06-15T02:10:08.349Z,19.20
2018-06-15T02:12:38.348Z,20.40
2018-06-15T02:15:07.712Z,20.73
2018-06-15T02:17:37.186Z,21.97
2018-06-15T02:20:06.544Z,22.10
2018-06-15T02:22:35.933Z,21.47
2018-06-15T02:25:05.744Z,21.90
2018-06-15T02:27:34.817Z,22.57
2018-06-15T02:30:04.880Z,23.47
2018-06-15T02:32:33.937Z,22.30
2018-06-15T02:35:03.336Z,21.80
2018-06-15T02:37:32.744Z,20.90
2018-06-15T02:40:02.197Z,22.43
2018-06-15T02:42:31.581Z,23.17
2018-06-15T02:45:00.966Z,22.10
2018-06-15T02:47:30.099Z,23.67
2018-06-15T02:49:59.489Z,23.93
2018-06-15T02:52:28.936Z,25.03
2018-06-15T02:54:58.324Z,23.20
2018-06-15T02:57:27.759Z,25.50
2018-06-15T02:59:57.109Z,25.17
2018-06-15T03:02:26.456Z,24.10
2018-06-15T03:04:55.847Z,24.57
2018-06-15T03:07:25.237Z,25.30
2018-06-15T03:09:54.566Z,24.53
2018-06-15T03:12:23.928Z,23.77
2018-06-15T03:14:53.331Z,23.10
2018-06-15T03:17:22.777Z,24.00
2018-06-15T03:19:52.138Z,25.60
2018-06-15T03:22:21.511Z,23.70
2018-06-15T03:24:50.865Z,23.70
2018-06-15T03:27:20.284Z,24.27
2018-06-15T03:29:49.663Z,25.53
2018-06-15T03:32:19.007Z,25.13
2018-06-15T03:34:48.427Z,20.20
2018-06-15T03:37:17.797Z,24.10
2018-06-15T03:39:46.893Z,22.93
2018-06-15T03:42:16.260Z,16.50
2018-06-15T03:44:45.636Z,23.40
2018-06-15T03:47:15.048Z,25.83
2018-06-15T03:49:44.414Z,24.77
2018-06-15T03:52:13.832Z,25.30
2018-06-15T03:54:43.474Z,27.60
2018-06-15T03:57:12.840Z,28.23
2018-06-15T03:59:42.238Z,25.30
2018-06-15T04:02:11.569Z,22.27
2018-06-15T04:04:40.950Z,24.30
2018-06-15T04:07:10.322Z,24.80
2018-06-15T04:09:39.761Z,26.73
2018-06-15T04:12:09.624Z,27.13
2018-06-15T04:14:39.096Z,27.47
2018-06-15T04:17:08.536Z,30.00
2018-06-15T04:19:38.043Z,27.87
2018-06-15T04:22:07.443Z,30.57
2018-06-15T04:24:36.898Z,32.63
2018-06-15T04:27:06.608Z,25.17
2018-06-15T04:29:35.774Z,28.83
2018-06-15T04:32:05.207Z,27.70
2018-06-15T04:34:34.645Z,26.97
2018-06-15T04:37:04.039Z,26.90
2018-06-15T04:39:33.451Z,25.97
2018-06-15T04:42:03.225Z,26.90
2018-06-15T04:44:32.331Z,25.80
2018-06-15T04:47:01.773Z,27.30
2018-06-15T04:49:31.174Z,21.90
2018-06-15T04:52:00.668Z,26.20
2018-06-15T04:54:29.813Z,27.40
2018-06-15T04:56:59.058Z,26.67
2018-06-15T04:59:28.580Z,27.20
2018-06-15T05:01:57.981Z,27.17
2018-06-15T05:04:27.361Z,23.57
2018-06-15T05:06:56.476Z,21.97
2018-06-15T05:09:25.883Z,24.07
2018-06-15T05:11:55.479Z,24.07
2018-06-15T05:14:24.841Z,16.97
2018-06-15T05:16:54.197Z,19.93
2018-06-15T05:19:23.573Z,18.60
2018-06-15T05:21:53.325Z,22.37
2018-06-15T05:24:23.330Z,21.97
2018-06-15T05:26:52.789Z,21.00
2018-06-15T05:29:22.328Z,18.63
2018-06-15T05:31:51.678Z,20.13
2018-06-15T05:34:21.111Z,20.20
2018-06-15T05:36:50.509Z,19.67
2018-06-15T05:39:19.899Z,22.60
2018-06-15T05:41:49.300Z,20.70
2018-06-15T05:44:18.672Z,19.20
2018-06-15T05:46:48.017Z,16.67
2018-06-15T05:49:17.397Z,18.80
2018-06-15T05:51:46.832Z,19.97
2018-06-15T05:54:16.218Z,17.77
2018-06-15T05:56:45.544Z,19.93
2018-06-15T05:59:14.920Z,18.13
2018-06-15T06:01:44.284Z,20.17
2018-06-15T06:04:13.721Z,19.87
2018-06-15T06:06:43.271Z,14.53
2018-06-15T06:09:12.977Z,19.30
2018-06-15T06:11:42.353Z,21.07
2018-06-15T06:14:11.753Z,22.73
2018-06-15T06:16:41.133Z,23.70
2018-06-15T06:19:10.508Z,24.83
2018-06-15T06:21:39.910Z,23.20
2018-06-15T06:24:09.433Z,24.40
2018-06-15T06:26:38.834Z,24.70
2018-06-15T06:29:08.225Z,24.50
2018-06-15T06:31:37.929Z,24.77
2018-06-15T06:34:07.880Z,28.43
2018-06-15T06:36:37.268Z,27.20
2018-06-15T06:39:09.887Z,26.03
2018-06-15T06:41:39.433Z,19.73
2018-06-15T06:44:09.195Z,22.27
2018-06-15T06:46:38.566Z,21.37
2018-06-15T06:49:07.932Z,23.07
2018-06-15T06:51:37.340Z,11.20
2018-06-15T06:54:06.779Z,25.23
2018-06-15T06:56:36.140Z,23.50
2018-06-15T06:59:05.490Z,20.30
2018-06-15T07:01:34.846Z,24.27
2018-06-15T07:04:04.200Z,18.93
2018-06-15T07:06:33.579Z,24.43
2018-06-15T07:09:03.004Z,22.27
2018-06-15T07:11:32.157Z,27.80
2018-06-15T07:14:01.651Z,26.70
2018-06-15T07:16:31.041Z,25.30
2018-06-15T07:19:00.391Z,22.87
2018-06-15T07:21:29.747Z,22.83
2018-06-15T07:23:59.463Z,19.90
2018-06-15T07:26:28.844Z,23.10
2018-06-15T07:28:58.276Z,23.10
2018-06-15T07:31:27.731Z,18.47
2018-06-15T07:33:57.166Z,20.90
2018-06-15T07:36:26.591Z,21.00
2018-06-15T07:38:55.688Z,19.60
2018-06-15T07:41:25.068Z,16.93
2018-06-15T07:44:00.978Z,18.70
2018-06-15T07:46:30.368Z,18.30
2018-06-15T07:48:59.751Z,21.40
2018-06-15T07:51:29.148Z,12.90
2018-06-15T07:53:58.252Z,19.33
2018-06-15T07:56:27.654Z,17.67
2018-06-15T07:58:57.144Z,16.80
2018-06-15T08:01:26.532Z,18.70
2018-06-15T08:04:02.419Z,20.33
2018-06-15T08:06:32.160Z,18.40
2018-06-15T08:09:01.593Z,16.30
2018-06-15T08:11:30.921Z,16.40
2018-06-15T08:14:00.280Z,19.97
2018-06-15T08:16:30.069Z,16.37
2018-06-15T08:18:59.424Z,17.77
2018-06-15T08:21:29.261Z,19.57
2018-06-15T08:23:58.782Z,18.00
2018-06-15T08:26:28.176Z,18.17
2018-06-15T08:28:57.545Z,18.17
2018-06-15T08:31:26.908Z,14.23
2018-06-15T08:33:56.351Z,16.10
2018-06-15T08:36:25.797Z,14.97
2018-06-15T08:38:55.388Z,15.13
2018-06-15T08:41:24.776Z,15.57
2018-06-15T08:43:54.212Z,15.80
2018-06-15T08:46:23.620Z,15.00
2018-06-15T08:48:53.051Z,13.00
2018-06-15T08:51:22.469Z,14.07
2018-06-15T08:53:51.872Z,16.20
2018-06-15T08:56:21.644Z,14.67
2018-06-15T08:58:51.064Z,15.30
2018-06-15T09:01:20.436Z,13.63
2018-06-15T09:03:49.797Z,15.03
2018-06-15T09:06:19.165Z,12.30
2018-06-15T09:08:48.755Z,13.70
2018-06-15T09:11:18.115Z,12.63
2018-06-15T09:13:47.469Z,13.43
2018-06-15T09:16:16.831Z,13.60
2018-06-15T09:18:46.197Z,13.60
2018-06-15T09:21:15.556Z,13.60
2018-06-15T09:23:44.883Z,14.27
2018-06-15T09:26:14.330Z,12.13
2018-06-15T09:28:43.693Z,13.37
2018-06-15T09:31:13.075Z,12.70
2018-06-15T09:33:42.427Z,13.80
2018-06-15T09:36:11.861Z,11.90
2018-06-15T09:38:41.236Z,12.67
2018-06-15T09:41:10.690Z,12.97
2018-06-15T09:43:40.052Z,12.87
2018-06-15T09:46:09.405Z,12.83
2018-06-15T09:48:43.078Z,11.97
2018-06-15T09:51:13.515Z,10.87
2018-06-15T09:53:42.909Z,12.10
2018-06-15T09:56:12.336Z,11.27
2018-06-15T09:58:41.769Z,11.50
2018-06-15T10:01:11.520Z,10.67
2018-06-15T10:03:41.104Z,10.80
2018-06-15T10:06:10.521Z,9.77
2018-06-15T10:08:40.059Z,10.33
2018-06-15T10:11:09.497Z,9.80
2018-06-15T10:13:38.836Z,10.40
2018-06-15T10:16:08.220Z,9.97
2018-06-15T10:18:37.575Z,9.73
2018-06-15T10:21:06.997Z,9.80
2018-06-15T10:23:36.330Z,8.67
2018-06-15T10:26:06.045Z,11.00
2018-06-15T10:28:35.534Z,8.73
2018-06-15T10:31:04.915Z,9.00
2018-06-15T10:33:34.299Z,8.77
2018-06-15T10:36:03.698Z,9.10
2018-06-15T10:38:32.794Z,9.20
2018-06-15T10:41:02.190Z,8.37
2018-06-15T10:43:31.595Z,7.63
2018-06-15T10:46:01.001Z,6.63
2018-06-15T10:48:30.426Z,6.50
2018-06-15T10:50:59.552Z,6.70
2018-06-15T10:53:28.889Z,6.33
2018-06-15T10:55:58.281Z,6.20
2018-06-15T10:58:27.852Z,6.30
2018-06-15T11:00:57.300Z,5.03
2018-06-15T11:03:26.745Z,5.60
2018-06-15T11:05:56.104Z,6.00
2018-06-15T11:08:25.474Z,6.70
2018-06-15T11:10:54.893Z,5.40
2018-06-15T11:13:24.225Z,5.67
2018-06-15T11:15:53.653Z,4.60
2018-06-15T11:18:23.022Z,4.50
2018-06-15T11:20:52.645Z,5.30
2018-06-15T11:23:22.005Z,5.43
2018-06-15T11:25:51.395Z,4.07
2018-06-15T11:28:20.760Z,3.97
2018-06-15T11:30:50.251Z,3.73
2018-06-15T11:33:19.803Z,4.67
2018-06-15T11:35:49.200Z,5.43
2018-06-15T11:38:18.644Z,5.80
2018-06-15T11:40:48.014Z,5.40
2018-06-15T11:43:17.366Z,4.93
2018-06-15T11:45:46.784Z,5.80
2018-06-15T11:48:16.169Z,5.10
2018-06-15T11:50:45.562Z,5.40
2018-06-15T11:53:14.919Z,4.70
2018-06-15T11:55:44.335Z,4.50
2018-06-15T11:58:13.850Z,4.40
2018-06-15T12:00:43.267Z,5.83
2018-06-15T12:03:12.840Z,5.27
2018-06-15T12:05:42.204Z,5.27
2018-06-15T12:08:11.629Z,4.70
2018-06-15T12:10:41.051Z,6.20
2018-06-15T12:13:10.444Z,5.30
2018-06-15T12:15:39.852Z,5.57
2018-06-15T12:18:09.235Z,5.00
2018-06-15T12:20:38.670Z,5.93
2018-06-15T12:23:08.042Z,6.00
2018-06-15T12:25:37.443Z,4.77
2018-06-15T12:28:06.941Z,5.43
2018-06-15T12:30:36.296Z,5.27
2018-06-15T12:33:05.676Z,5.73
2018-06-15T12:35:35.179Z,4.83
2018-06-15T12:38:04.566Z,5.50
2018-06-15T12:40:33.957Z,5.90
2018-06-15T12:43:03.317Z,5.40
2018-06-15T12:45:32.691Z,5.20
2018-06-15T12:48:02.019Z,5.30
2018-06-15T12:50:31.434Z,5.43
2018-06-15T12:53:01.177Z,6.10
2018-06-15T12:55:30.579Z,5.83
2018-06-15T12:58:00.315Z,5.30
2018-06-15T13:03:05.409Z,5.30
2018-06-15T13:05:34.837Z,5.17
2018-06-15T13:08:04.622Z,4.90
2018-06-15T13:10:34.190Z,4.80
2018-06-15T13:13:03.534Z,5.10
2018-06-15T13:15:32.897Z,4.50
2018-06-15T13:18:04.548Z,4.23
2018-06-15T13:20:35.590Z,4.37
2018-06-15T13:23:07.078Z,3.93
2018-06-15T13:25:38.690Z,4.77
2018-06-15T13:28:08.167Z,4.73
2018-06-15T13:30:37.578Z,5.37
2018-06-15T13:33:06.939Z,4.50
2018-06-15T13:35:36.363Z,4.70
2018-06-15T13:38:05.433Z,4.20
2018-06-15T13:40:34.839Z,4.07
2018-06-15T13:43:04.607Z,3.30
2018-06-15T13:45:34.137Z,3.50
2018-06-15T13:48:03.514Z,3.30
2018-06-15T13:50:32.848Z,3.50
2018-06-15T13:53:02.266Z,3.30
2018-06-15T13:55:31.727Z,3.33
2018-06-15T13:58:01.120Z,3.57
2018-06-15T14:00:30.539Z,3.60
2018-06-15T14:02:59.880Z,2.70
2018-06-15T14:05:29.280Z,3.07
2018-06-15T14:07:58.662Z,3.20
2018-06-15T14:10:28.033Z,2.80
2018-06-15T14:12:57.388Z,3.30
2018-06-15T14:15:26.717Z,4.37
2018-06-15T14:17:56.086Z,3.53
2018-06-15T14:20:25.425Z,3.50
2018-06-15T14:22:54.818Z,3.50
2018-06-15T14:25:24.426Z,3.80
2018-06-15T14:27:53.741Z,3.57
2018-06-15T14:30:23.151Z,3.73
2018-06-15T14:32:52.518Z,3.37
2018-06-15T14:35:22.045Z,3.50
2018-06-15T14:37:51.461Z,3.10
2018-06-15T14:40:21.062Z,3.40
2018-06-15T14:42:50.405Z,2.70
2018-06-15T14:45:19.753Z,3.10
2018-06-15T14:47:49.182Z,2.77
2018-06-15T14:50:18.590Z,2.67
2018-06-15T14:52:47.661Z,3.03
2018-06-15T14:55:17.039Z,3.10
2018-06-15T14:57:46.392Z,2.30
2018-06-15T15:00:15.768Z,3.10
2018-06-15T15:02:45.129Z,2.53
2018-06-15T15:05:14.516Z,2.63
2018-06-15T15:07:43.849Z,2.23
2018-06-15T15:10:13.245Z,2.60
2018-06-15T15:12:42.391Z,2.57
2018-06-15T15:15:11.961Z,2.70
2018-06-15T15:17:41.060Z,2.20
2018-06-15T15:20:10.356Z,2.10
2018-06-15T15:22:39.784Z,2.30
2018-06-15T15:25:09.177Z,2.50
2018-06-15T15:27:38.743Z,2.30
2018-06-15T15:30:08.195Z,2.47
2018-06-15T15:32:37.692Z,2.37
2018-06-15T15:35:07.054Z,2.50
2018-06-15T15:37:36.660Z,3.17
2018-06-15T15:40:06.038Z,2.70
2018-06-15T15:42:35.652Z,2.40
2018-06-15T15:45:05.451Z,2.43
2018-06-15T15:47:34.721Z,2.40
2018-06-15T15:50:04.152Z,2.67
2018-06-15T15:52:33.534Z,3.20
2018-06-15T15:55:02.618Z,3.30
2018-06-15T15:57:32.100Z,2.57
2018-06-15T16:00:01.455Z,2.70
2018-06-15T16:02:30.568Z,2.70
2018-06-15T16:05:00.108Z,2.07
2018-06-15T16:07:29.487Z,2.30
2018-06-15T16:09:58.860Z,2.70
2018-06-15T16:12:28.247Z,1.97
2018-06-15T16:14:57.643Z,2.00
2018-06-15T16:17:27.045Z,2.10
2018-06-15T16:19:56.402Z,2.30
2018-06-15T16:22:25.790Z,1.60
2018-06-15T16:24:55.197Z,2.10
2018-06-15T16:27:24.596Z,1.93
2018-06-15T16:29:54.156Z,2.30
2018-06-15T16:32:23.784Z,1.90
2018-06-15T16:34:53.235Z,1.73
2018-06-15T16:37:22.654Z,1.73
2018-06-15T16:39:52.093Z,2.30
2018-06-15T16:42:21.518Z,2.00
2018-06-15T16:44:50.925Z,2.30
2018-06-15T16:47:20.326Z,1.87
2018-06-15T16:49:49.683Z,1.60
2018-06-15T16:52:18.812Z,1.67
2018-06-15T16:54:48.073Z,1.70
2018-06-15T16:57:17.140Z,1.40
2018-06-15T16:59:46.521Z,1.57
2018-06-15T17:02:15.872Z,1.73
2018-06-15T17:04:45.201Z,1.97
2018-06-15T17:10:11.987Z,1.40
2018-06-15T17:12:41.317Z,1.50
2018-06-15T17:15:11.027Z,1.30
2018-06-15T17:17:40.193Z,1.33
2018-06-15T17:20:09.562Z,1.80
2018-06-15T17:22:38.927Z,1.17
2018-06-15T17:25:08.340Z,1.80
2018-06-15T17:27:37.644Z,1.63
2018-06-15T17:30:07.100Z,1.90
2018-06-15T17:32:36.461Z,1.50
2018-06-15T17:35:06.201Z,1.70
2018-06-15T17:37:38.272Z,1.80
2018-06-15T17:40:07.692Z,2.03
2018-06-15T17:42:37.023Z,1.83
2018-06-15T17:45:06.861Z,1.80
2018-06-15T17:47:36.285Z,1.53
2018-06-15T17:50:05.660Z,2.07
2018-06-15T17:52:35.353Z,1.80
2018-06-15T17:55:04.708Z,1.40
2018-06-15T17:57:34.805Z,2.00
2018-06-15T18:00:04.749Z,1.63
2018-06-15T18:02:34.114Z,1.90
2018-06-15T18:05:03.512Z,2.20
2018-06-15T18:07:39.496Z,1.97
2018-06-15T18:10:08.610Z,2.03
2018-06-15T18:12:38.167Z,2.77
2018-06-15T18:15:07.552Z,2.13
2018-06-15T18:17:36.689Z,2.50
2018-06-15T18:20:06.597Z,2.33
2018-06-15T18:22:35.989Z,1.87
2018-06-15T18:25:06.206Z,2.20
2018-06-15T18:27:35.568Z,2.10
2018-06-15T18:30:05.683Z,2.30
2018-06-15T18:32:35.150Z,2.63
2018-06-15T18:35:04.929Z,2.77
2018-06-15T18:37:34.300Z,2.80
2018-06-15T18:40:04.244Z,2.60
2018-06-15T18:42:33.649Z,2.60
2018-06-15T18:45:02.741Z,3.77
2018-06-15T18:47:32.097Z,4.00
2018-06-15T18:50:03.082Z,4.23
2018-06-15T18:52:32.482Z,4.13
2018-06-15T18:55:01.873Z,3.40
2018-06-15T18:57:31.249Z,3.60
2018-06-15T19:00:01.005Z,3.20
2018-06-15T19:02:30.491Z,3.80
2018-06-15T19:04:59.864Z,3.10
2018-06-15T19:07:29.255Z,3.20
2018-06-15T19:09:58.784Z,3.47
2018-06-15T19:12:28.187Z,4.00
2018-06-15T19:14:57.352Z,3.50
2018-06-15T19:17:26.630Z,3.10
2018-06-15T19:19:56.129Z,2.87
2018-06-15T19:22:25.436Z,3.07
2018-06-15T19:24:54.864Z,3.17
2018-06-15T19:27:24.216Z,2.60
2018-06-15T19:29:53.699Z,2.70
2018-06-15T19:32:23.068Z,2.97
2018-06-15T19:34:52.616Z,2.63
2018-06-15T19:37:21.969Z,3.00
2018-06-15T19:39:51.400Z,3.00
2018-06-15T19:42:20.664Z,2.70
2018-06-15T19:44:50.262Z,2.77
2018-06-15T19:47:19.596Z,2.80
2018-06-15T19:49:48.956Z,2.67
2018-06-15T19:52:18.444Z,2.40
2018-06-15T19:54:47.815Z,2.30
2018-06-15T19:57:17.209Z,2.60
2018-06-15T19:59:46.597Z,3.13
2018-06-15T20:02:16.020Z,2.20
2018-06-15T20:04:45.392Z,3.10
2018-06-15T20:07:14.755Z,2.50
2018-06-15T20:09:44.482Z,2.83
2018-06-15T20:12:13.963Z,2.70
2018-06-15T20:14:43.041Z,3.20
2018-06-15T20:17:12.272Z,2.40
2018-06-15T20:19:41.656Z,2.90
2018-06-15T20:22:11.030Z,2.90
2018-06-15T20:24:40.392Z,3.40
2018-06-15T20:27:09.777Z,3.00
2018-06-15T20:29:39.145Z,3.00
2018-06-15T20:32:08.550Z,3.30
2018-06-15T20:34:37.924Z,3.70
2018-06-15T20:37:07.299Z,2.67
2018-06-15T20:39:36.658Z,3.20
2018-06-15T20:42:06.786Z,3.47
2018-06-15T20:44:36.167Z,3.50
2018-06-15T20:47:05.538Z,2.90
2018-06-15T20:49:34.941Z,3.20
2018-06-15T20:52:04.306Z,3.17
2018-06-15T20:54:33.711Z,3.70
2018-06-15T20:57:03.085Z,3.30
2018-06-15T20:59:32.471Z,3.93
2018-06-15T21:04:59.163Z,3.73
2018-06-15T21:07:28.861Z,3.67
2018-06-15T21:09:58.248Z,4.00
2018-06-15T21:12:27.594Z,4.20
2018-06-15T21:14:57.419Z,4.07
2018-06-15T21:17:26.737Z,4.03
2018-06-15T21:19:56.113Z,3.47
2018-06-15T21:22:25.485Z,4.17
2018-06-15T21:24:54.871Z,3.93
2018-06-15T21:27:24.247Z,3.60
2018-06-15T21:29:53.608Z,4.20
2018-06-15T21:32:22.981Z,4.00
2018-06-15T21:34:52.330Z,3.60
2018-06-15T21:37:21.678Z,3.73
2018-06-15T21:39:51.039Z,3.90
2018-06-15T21:42:20.432Z,3.40
2018-06-15T21:44:49.772Z,4.00
2018-06-15T21:47:19.136Z,3.80
2018-06-15T21:49:48.514Z,3.50
2018-06-15T21:52:17.880Z,3.20
2018-06-15T21:54:47.221Z,3.87
2018-06-15T21:57:16.583Z,4.40
2018-06-15T21:59:45.955Z,4.40
2018-06-15T22:02:15.290Z,3.87
2018-06-15T22:04:44.636Z,3.57
2018-06-15T22:07:13.997Z,4.40
2018-06-15T22:09:43.333Z,3.97
2018-06-15T22:12:12.628Z,4.47
2018-06-15T22:14:41.986Z,4.47
2018-06-15T22:17:11.383Z,4.03
2018-06-15T22:19:40.773Z,3.67
2018-06-15T22:22:10.164Z,3.63
2018-06-15T22:24:39.492Z,4.23
2018-06-15T22:27:08.769Z,4.53
2018-06-15T22:29:38.150Z,4.53
2018-06-15T22:32:07.512Z,4.30
2018-06-15T22:34:37.048Z,4.83
2018-06-15T22:37:06.437Z,4.53
2018-06-15T22:39:35.804Z,4.87
2018-06-15T22:42:05.263Z,4.83
2018-06-15T22:44:34.363Z,4.70
2018-06-15T22:47:03.730Z,5.60
2018-06-15T22:49:33.093Z,4.83
2018-06-15T22:52:02.448Z,5.13
2018-06-15T22:54:31.796Z,4.57
2018-06-15T22:57:01.206Z,4.43
2018-06-15T22:59:30.561Z,5.20
2018-06-15T23:02:00.284Z,5.00
2018-06-15T23:04:29.626Z,4.40
2018-06-15T23:06:58.974Z,4.70
2018-06-15T23:09:28.342Z,4.43
2018-06-15T23:11:57.735Z,4.87
2018-06-15T23:14:27.121Z,4.17
2018-06-15T23:16:56.522Z,4.17
2018-06-15T23:19:25.870Z,4.20
2018-06-15T23:21:54.995Z,4.77
2018-06-15T23:24:24.373Z,5.07
2018-06-15T23:26:53.840Z,4.40
2018-06-15T23:29:23.197Z,4.50
2018-06-15T23:31:52.578Z,4.80
2018-06-15T23:34:21.951Z,4.13
2018-06-15T23:36:51.333Z,4.90
2018-06-15T23:39:20.715Z,4.33
2018-06-15T23:41:50.083Z,5.00
2018-06-15T23:44:19.505Z,4.70
2018-06-15T23:46:48.860Z,4.70
2018-06-15T23:49:18.195Z,5.13
2018-06-15T23:51:47.586Z,4.70
2018-06-15T23:54:16.701Z,4.23
2018-06-15T23:56:46.050Z,4.33
2018-06-15T23:59:15.415Z,4.60
